Time;durP1;ratioP1;P1;durP2;ratioP2;P2;SDS_P1;SDS_P2;PMS_P1;PMS_P2;Temp;Humidity;BMP_temperature;BMP_pressure;BME280_temperature;BME280_humidity;BME280_pressure;Samples;Min_cycle;Max_cycle;Signal;HPM_P1;HPM_P2
2023/04/17 00:01:38;;;;;;;;;;;;;;;14.14;57.33;101382.75;4960516;28;8500;-76
2023/04/17 00:04:04;;;;;;;;;;;;;;;14.11;56.74;101380.91;4944607;28;6804;-76
2023/04/17 00:06:32;;;;;;;;;;;;;;;14.10;56.81;101378.25;4944926;28;7023;-75
2023/04/17 00:08:58;;;;;;;;;;;;;;;14.08;57.38;101383.34;4942811;28;7321;-75
2023/04/17 00:11:25;;;;;;;;;;;;;;;14.07;56.93;101380.69;4960420;28;7326;-75
2023/04/17 00:13:51;;;;;;;;;;;;;;;14.06;57.08;101384.97;4959249;28;7090;-75
2023/04/17 00:16:16;;;;;;;;;;;;;;;14.06;57.47;101386.66;4942582;28;6824;-76
2023/04/17 00:18:42;;;;;;;;;;;;;;;14.07;56.80;101381.59;4938708;28;6964;-75
2023/04/17 00:21:08;;;;;;;;;;;;;;;14.07;57.83;101379.00;4942186;28;7121;-75
2023/04/17 00:23:34;;;;;;;;;;;;;;;14.08;57.72;101374.72;4946778;28;7144;-75
2023/04/17 00:25:59;;;;;;;;;;;;;;;14.08;57.61;101377.28;4940191;28;7666;-75
2023/04/17 00:28:25;;;;;;;;;;;;;;;14.09;57.50;101385.13;4943026;28;6772;-75
2023/04/17 00:30:51;;;;;;;;;;;;;;;14.10;57.18;101381.72;4944225;28;6932;-75
2023/04/17 00:33:16;;;;;;;;;;;;;;;14.10;57.37;101381.72;4943602;28;7321;-75
2023/04/17 00:35:42;;;;;;;;;;;;;;;14.11;57.76;101382.63;4944130;28;6953;-75
2023/04/17 00:38:08;;;;;;;;;;;;;;;14.10;57.12;101379.16;4945139;28;7354;-75
2023/04/17 00:40:34;;;;;;;;;;;;;;;14.09;57.76;101373.91;4944542;28;6780;-75
2023/04/17 00:43:01;;;;;;;;;;;;;;;14.08;57.64;101374.72;4938583;28;6840;-75
2023/04/17 00:45:28;;;;;;;;;;;;;;;14.08;57.36;101373.03;4960356;28;6788;-75
2023/04/17 00:47:58;;;;;;;;;;;;;;;14.10;57.27;101371.41;4957142;28;7181;-75
2023/04/17 00:50:27;;;;;;;;;;;;;;;14.11;57.10;101370.59;4943809;28;6784;-75
2023/04/17 00:52:54;;;;;;;;;;;;;;;14.13;57.64;101376.72;4941099;28;6824;-76
2023/04/17 00:55:20;;;;;;;;;;;;;;;14.14;57.35;101377.59;4961255;28;7893;-75
2023/04/17 00:57:48;;;;;;;;;;;;;;;14.14;57.63;101377.59;4942737;28;6990;-75
2023/04/17 01:00:16;;;;;;;;;;;;;;;14.12;57.36;101372.38;4943446;28;6984;-75
2023/04/17 01:02:44;;;;;;;;;;;;;;;14.12;57.15;101376.66;4937316;28;6792;-75
2023/04/17 01:05:09;;;;;;;;;;;;;;;14.11;58.00;101372.31;4940397;28;7259;-76
2023/04/17 01:07:38;;;;;;;;;;;;;;;14.10;57.69;101368.84;4942520;28;6784;-75
2023/04/17 01:10:04;;;;;;;;;;;;;;;14.08;57.03;101369.56;4947708;28;6792;-75
2023/04/17 01:12:30;;;;;;;;;;;;;;;14.07;57.08;101365.22;4940140;28;6937;-75
2023/04/17 01:14:56;;;;;;;;;;;;;;;14.06;58.13;101368.63;4951499;28;7037;-75
2023/04/17 01:17:27;;;;;;;;;;;;;;;14.08;57.14;101367.00;4931898;28;6804;-76
2023/04/17 01:19:54;;;;;;;;;;;;;;;14.07;57.68;101365.22;4916581;28;7537;-76
2023/04/17 01:22:20;;;;;;;;;;;;;;;14.06;57.80;101360.88;4956741;28;6800;-75
2023/04/17 01:24:47;;;;;;;;;;;;;;;14.07;57.01;101360.97;4935186;28;6784;-75
2023/04/17 01:27:14;;;;;;;;;;;;;;;14.05;57.67;101361.69;4940908;28;6876;-76
2023/04/17 01:29:41;;;;;;;;;;;;;;;14.05;57.23;101361.69;4945814;28;6892;-75
2023/04/17 01:32:07;;;;;;;;;;;;;;;14.01;57.40;101361.56;4955445;28;7845;-75
2023/04/17 01:34:34;;;;;;;;;;;;;;;13.98;57.88;101363.97;4957871;28;7162;-76
2023/04/17 01:37:00;;;;;;;;;;;;;;;13.96;57.50;101360.41;4941115;28;6810;-75
2023/04/17 01:39:26;;;;;;;;;;;;;;;13.96;57.99;101367.28;4936634;28;6959;-76
2023/04/17 01:41:53;;;;;;;;;;;;;;;13.93;57.44;101360.28;4938640;28;7037;-75
2023/04/17 01:44:19;;;;;;;;;;;;;;;13.92;57.43;101361.09;4945420;28;6816;-76
2023/04/17 01:46:45;;;;;;;;;;;;;;;13.92;57.76;101361.09;4939418;28;6789;-76
2023/04/17 01:49:11;;;;;;;;;;;;;;;13.93;57.88;101356.81;4920422;28;7153;-76
2023/04/17 01:51:37;;;;;;;;;;;;;;;13.93;57.63;101359.38;4924018;28;6966;-75
2023/04/17 01:54:02;;;;;;;;;;;;;;;13.93;57.26;101361.97;4935030;28;6855;-75
2023/04/17 01:56:28;;;;;;;;;;;;;;;13.92;57.52;101365.34;4936762;28;6792;-76
2023/04/17 01:58:54;;;;;;;;;;;;;;;13.91;57.65;101361.91;4923762;28;7054;-76
2023/04/17 02:01:19;;;;;;;;;;;;;;;13.91;57.24;101369.63;4958176;28;7249;-76
2023/04/17 02:03:45;;;;;;;;;;;;;;;13.90;57.31;101365.25;4938833;28;6780;-76
2023/04/17 02:06:11;;;;;;;;;;;;;;;13.91;57.20;101367.06;4937519;28;7185;-75
2023/04/17 02:08:37;;;;;;;;;;;;;;;13.91;57.56;101377.38;4938670;28;7273;-75
2023/04/17 02:11:02;;;;;;;;;;;;;;;13.89;57.50;101366.06;4930135;28;6791;-76
2023/04/17 02:13:28;;;;;;;;;;;;;;;13.87;57.67;101357.38;4940958;28;6959;-75
2023/04/17 02:15:54;;;;;;;;;;;;;;;13.87;57.39;101363.44;4940846;28;6780;-75
2023/04/17 02:18:20;;;;;;;;;;;;;;;13.85;57.41;101370.19;4959873;28;6951;-75
2023/04/17 02:20:45;;;;;;;;;;;;;;;13.85;57.74;101369.31;4939905;28;6967;-75
2023/04/17 02:23:11;;;;;;;;;;;;;;;13.85;57.02;101361.59;4945332;28;6935;-75
2023/04/17 02:25:37;;;;;;;;;;;;;;;13.84;56.88;101367.56;4940313;28;6784;-76
2023/04/17 02:28:03;;;;;;;;;;;;;;;13.82;57.87;101366.59;4947663;28;6765;-75
2023/04/17 02:30:29;;;;;;;;;;;;;;;13.80;57.80;101361.34;4945073;28;6784;-76
2023/04/17 02:32:55;;;;;;;;;;;;;;;13.79;58.00;101363.84;4944749;28;7085;-76
2023/04/17 02:35:25;;;;;;;;;;;;;;;13.77;58.06;101368.94;4941433;28;6797;-76
2023/04/17 02:37:52;;;;;;;;;;;;;;;13.77;57.54;101360.31;4960985;28;7323;-75
2023/04/17 02:40:18;;;;;;;;;;;;;;;13.76;57.33;101362.00;4962146;28;6827;-75
2023/04/17 02:42:44;;;;;;;;;;;;;;;13.77;57.66;101365.47;4945433;28;7059;-75
2023/04/17 02:45:10;;;;;;;;;;;;;;;13.76;57.46;101364.56;4947827;28;6913;-75
2023/04/17 02:47:36;;;;;;;;;;;;;;;13.74;57.92;101372.25;4944693;28;6971;-75
2023/04/17 02:50:03;;;;;;;;;;;;;;;13.74;57.63;101361.94;4946695;28;6860;-76
2023/04/17 02:52:30;;;;;;;;;;;;;;;13.74;57.66;101369.66;4940421;28;6973;-75
2023/04/17 02:54:56;;;;;;;;;;;;;;;13.72;57.98;101365.25;4947464;28;7254;-75
2023/04/17 02:57:22;;;;;;;;;;;;;;;13.73;58.06;101361.84;4938344;28;7135;-75
2023/04/17 02:59:49;;;;;;;;;;;;;;;13.71;57.24;101364.38;4964306;28;8362;-75
2023/04/17 03:02:20;;;;;;;;;;;;;;;13.72;57.85;101367.81;4941155;28;6979;-75
2023/04/17 03:04:50;;;;;;;;;;;;;;;13.71;57.08;101359.22;4958682;28;6816;-75
2023/04/17 03:07:18;;;;;;;;;;;;;;;13.68;58.09;101371.91;4949209;28;7376;-75
2023/04/17 03:09:47;;;;;;;;;;;;;;;13.67;57.76;101370.16;4960711;28;7233;-75
2023/04/17 03:12:15;;;;;;;;;;;;;;;13.65;57.32;101364.03;4929127;28;7070;-76
2023/04/17 03:14:43;;;;;;;;;;;;;;;13.64;58.09;101370.00;4959185;28;6864;-76
2023/04/17 03:17:10;;;;;;;;;;;;;;;13.59;57.69;101361.16;4944613;28;6875;-75
2023/04/17 03:19:36;;;;;;;;;;;;;;;13.57;58.12;101362.78;4951899;28;6796;-75
2023/04/17 03:22:03;;;;;;;;;;;;;;;13.55;57.59;101372.13;4945122;28;7133;-75
2023/04/17 03:24:30;;;;;;;;;;;;;;;13.53;57.66;101366.00;4938100;28;6808;-75
2023/04/17 03:26:57;;;;;;;;;;;;;;;13.54;57.54;101367.78;4952986;28;7079;-76
2023/04/17 03:29:22;;;;;;;;;;;;;;;13.52;58.42;101365.09;4951924;28;6995;-76
2023/04/17 03:31:48;;;;;;;;;;;;;;;13.54;57.81;101371.22;4936493;28;6969;-74
2023/04/17 03:34:14;;;;;;;;;;;;;;;13.56;58.04;101366.16;4937634;28;6927;-74
2023/04/17 03:36:39;;;;;;;;;;;;;;;13.56;58.40;101368.72;4940690;28;7064;-74
2023/04/17 03:39:05;;;;;;;;;;;;;;;13.55;57.95;101369.53;4958775;28;6949;-72
2023/04/17 03:41:31;;;;;;;;;;;;;;;13.54;58.08;101362.63;4942508;28;6768;-76
2023/04/17 03:43:56;;;;;;;;;;;;;;;13.54;58.10;101360.91;4940305;28;6927;-74
2023/04/17 03:46:22;;;;;;;;;;;;;;;13.54;58.16;101362.63;4943880;28;7010;-75
2023/04/17 03:48:48;;;;;;;;;;;;;;;13.54;57.78;101362.63;4937846;28;6844;-74
2023/04/17 03:51:15;;;;;;;;;;;;;;;13.52;58.19;101359.06;4944346;28;6784;-73
2023/04/17 03:53:40;;;;;;;;;;;;;;;13.50;57.94;101363.25;4938423;28;7610;-73
2023/04/17 03:56:06;;;;;;;;;;;;;;;13.50;58.40;101366.72;4941167;28;7170;-74
2023/04/17 03:58:32;;;;;;;;;;;;;;;13.51;57.93;101365.00;4939887;28;6844;-76
2023/04/17 04:01:00;;;;;;;;;;;;;;;13.52;58.00;101370.25;4941402;28;6960;-73
2023/04/17 04:03:27;;;;;;;;;;;;;;;13.51;58.13;101370.16;4936877;28;10200;-74
2023/04/17 04:05:53;;;;;;;;;;;;;;;13.50;58.35;101366.72;4943716;28;7199;-74
2023/04/17 04:08:19;;;;;;;;;;;;;;;13.51;58.71;101370.16;4938649;28;7396;-77
2023/04/17 04:10:45;;;;;;;;;;;;;;;13.53;57.94;101372.03;4954112;28;6874;-73
2023/04/17 04:13:11;;;;;;;;;;;;;;;13.53;58.85;101371.16;4940846;28;7521;-74
2023/04/17 04:15:38;;;;;;;;;;;;;;;13.50;58.53;101373.56;4941417;28;7139;-76
2023/04/17 04:18:04;;;;;;;;;;;;;;;13.47;58.31;101375.16;4930199;28;7020;-76
2023/04/17 04:20:29;;;;;;;;;;;;;;;13.45;58.73;101374.22;4941643;28;8080;-74
2023/04/17 04:22:58;;;;;;;;;;;;;;;13.43;58.63;101380.94;4942991;28;6932;-74
2023/04/17 04:25:25;;;;;;;;;;;;;;;13.39;58.76;101379.00;4942660;28;7052;-75
2023/04/17 04:27:52;;;;;;;;;;;;;;;13.37;58.65;101379.72;4943021;28;7162;-74
2023/04/17 04:30:20;;;;;;;;;;;;;;;13.37;58.33;101387.44;4956701;28;6989;-75
2023/04/17 04:32:46;;;;;;;;;;;;;;;13.35;59.18;101379.66;4959857;28;6784;-76
2023/04/17 04:35:12;;;;;;;;;;;;;;;13.34;59.14;101383.91;4940534;28;6987;-73
2023/04/17 04:37:41;;;;;;;;;;;;;;;13.34;58.48;101380.47;4944691;28;6963;-74
2023/04/17 04:40:10;;;;;;;;;;;;;;;13.33;58.92;101384.72;4942538;28;6812;-73
2023/04/17 04:42:48;;;;;;;;;;;;;;;13.33;58.85;101384.72;4943449;28;7261;-73
2023/04/17 04:45:15;;;;;;;;;;;;;;;13.32;59.00;101388.09;4954754;28;6812;-75
2023/04/17 04:47:41;;;;;;;;;;;;;;;13.32;59.51;101389.78;4957588;28;8121;-73
2023/04/17 04:50:08;;;;;;;;;;;;;;;13.31;59.26;101385.44;4931231;28;6975;-73
2023/04/17 04:52:34;;;;;;;;;;;;;;;13.33;58.79;101395.03;4947186;28;6834;-74
2023/04/17 04:55:00;;;;;;;;;;;;;;;13.34;59.79;101393.34;4946448;28;6864;-74
2023/04/17 04:57:26;;;;;;;;;;;;;;;13.34;59.59;101388.19;4930393;28;6967;-74
2023/04/17 04:59:52;;;;;;;;;;;;;;;13.35;59.37;101395.09;4947794;28;6967;-73
2023/04/17 05:02:18;;;;;;;;;;;;;;;13.35;59.62;101397.69;4961583;28;8762;-73
2023/04/17 05:04:43;;;;;;;;;;;;;;;13.35;59.62;101395.09;4946074;28;7437;-72
2023/04/17 05:07:09;;;;;;;;;;;;;;;13.36;59.92;101398.56;4944858;28;6777;-74
2023/04/17 05:09:35;;;;;;;;;;;;;;;13.36;59.95;101402.03;4941752;28;6772;-75
2023/04/17 05:12:01;;;;;;;;;;;;;;;13.35;59.32;101400.25;4942599;28;7388;-75
2023/04/17 05:14:26;;;;;;;;;;;;;;;13.33;59.82;101405.31;4956056;28;7244;-79
2023/04/17 05:16:54;;;;;;;;;;;;;;;13.31;59.59;101404.34;4943806;28;6951;-74
2023/04/17 05:19:20;;;;;;;;;;;;;;;13.29;59.34;101412.78;4945566;28;7317;-76
2023/04/17 05:21:45;;;;;;;;;;;;;;;13.27;59.51;101404.13;4960532;28;6784;-77
2023/04/17 05:24:11;;;;;;;;;;;;;;;13.26;59.51;101404.91;4946198;28;6781;-76
2023/04/17 05:26:37;;;;;;;;;;;;;;;13.26;59.67;101407.50;4939978;28;7212;-75
2023/04/17 05:29:03;;;;;;;;;;;;;;;13.25;59.79;101414.31;4940224;28;6965;-74
2023/04/17 05:31:29;;;;;;;;;;;;;;;13.25;59.93;101411.75;4927657;28;7044;-75
2023/04/17 05:33:54;;;;;;;;;;;;;;;13.24;59.77;101415.13;4944226;28;7042;-75
2023/04/17 05:36:21;;;;;;;;;;;;;;;13.23;60.02;101415.94;4941536;28;6964;-75
2023/04/17 05:38:48;;;;;;;;;;;;;;;13.25;60.28;101416.03;4960537;28;6788;-75
2023/04/17 05:41:13;;;;;;;;;;;;;;;13.25;60.33;101421.19;4941245;28;6816;-75
2023/04/17 05:43:41;;;;;;;;;;;;;;;13.25;60.35;101416.03;4945690;28;6860;-78
2023/04/17 05:46:07;;;;;;;;;;;;;;;13.25;60.20;101423.75;4955739;28;6793;-78
2023/04/17 05:48:32;;;;;;;;;;;;;;;13.27;60.24;101415.28;4940444;28;6764;-78
2023/04/17 05:50:58;;;;;;;;;;;;;;;13.30;60.81;101424.84;4952243;28;7392;-78
2023/04/17 05:53:24;;;;;;;;;;;;;;;13.31;59.95;101416.31;4961923;28;7009;-78
2023/04/17 05:55:50;;;;;;;;;;;;;;;13.31;60.59;101427.53;4942557;28;6776;-78
2023/04/17 05:58:15;;;;;;;;;;;;;;;13.31;60.63;101416.31;4939268;28;7094;-78
2023/04/17 06:00:41;;;;;;;;;;;;;;;13.31;60.38;101424.06;4953633;28;6776;-78
2023/04/17 06:03:07;;;;;;;;;;;;;;;13.32;61.22;101420.66;4939633;28;6836;-78
2023/04/17 06:05:33;;;;;;;;;;;;;;;13.34;60.69;101421.66;4942721;28;6782;-78
2023/04/17 06:07:59;;;;;;;;;;;;;;;13.36;60.28;101420.06;4946994;28;7271;-77
2023/04/17 06:10:25;;;;;;;;;;;;;;;13.38;61.11;101423.59;4940652;28;6948;-76
2023/04/17 06:12:51;;;;;;;;;;;;;;;13.42;61.20;101430.69;4941905;28;6788;-76
2023/04/17 06:15:16;;;;;;;;;;;;;;;13.44;60.28;101429.09;4937231;28;7007;-76
2023/04/17 06:17:42;;;;;;;;;;;;;;;13.45;61.02;101420.56;4946181;28;7008;-76
2023/04/17 06:20:11;;;;;;;;;;;;;;;13.49;60.41;101431.03;4927469;28;6931;-76
2023/04/17 06:22:39;;;;;;;;;;;;;;;13.52;61.54;101428.59;4956598;28;7257;-76
2023/04/17 06:25:06;;;;;;;;;;;;;;;13.57;61.29;101429.72;4946382;28;7004;-76
2023/04/17 06:27:32;;;;;;;;;;;;;;;13.59;60.94;101429.00;4914674;29;7886;-77
2023/04/17 06:29:58;;;;;;;;;;;;;;;13.62;60.73;101441.19;4942298;28;7242;-77
2023/04/17 06:32:23;;;;;;;;;;;;;;;13.64;61.11;101436.09;4939102;28;6808;-76
2023/04/17 06:34:49;;;;;;;;;;;;;;;13.69;61.49;101440.66;4922650;28;7185;-76
2023/04/17 06:37:15;;;;;;;;;;;;;;;13.72;60.58;101437.38;4942287;28;7841;-76
2023/04/17 06:39:40;;;;;;;;;;;;;;;13.74;60.70;101435.75;4956755;28;6955;-76
2023/04/17 06:42:06;;;;;;;;;;;;;;;13.79;60.54;101441.13;4945735;28;7037;-76
2023/04/17 06:44:32;;;;;;;;;;;;;;;13.83;60.58;101443.09;4945716;28;7047;-76
2023/04/17 06:47:02;;;;;;;;;;;;;;;13.85;61.31;101439.75;4959093;28;6796;-76
2023/04/17 06:49:30;;;;;;;;;;;;;;;13.87;60.78;101440.75;4942991;28;6800;-76
2023/04/17 06:51:57;;;;;;;;;;;;;;;13.92;60.16;101453.88;4934811;28;7196;-76
2023/04/17 06:54:23;;;;;;;;;;;;;;;13.93;60.35;101445.31;4941198;28;7016;-76
2023/04/17 06:56:49;;;;;;;;;;;;;;;13.96;60.43;101449.75;4956926;28;6812;-76
2023/04/17 06:59:16;;;;;;;;;;;;;;;13.99;60.44;101455.94;4940950;28;6792;-76
2023/04/17 07:01:41;;;;;;;;;;;;;;;14.02;60.32;101456.09;4936875;28;6983;-76
2023/04/17 07:04:08;;;;;;;;;;;;;;;14.05;60.47;101462.22;4936667;28;6956;-76
2023/04/17 07:06:34;;;;;;;;;;;;;;;14.03;59.82;101457.88;4941351;28;6816;-76
2023/04/17 07:09:02;;;;;;;;;;;;;;;14.02;59.93;101462.94;4959907;28;7765;-76
2023/04/17 07:11:29;;;;;;;;;;;;;;;14.01;60.49;101467.22;4947986;28;7793;-76
2023/04/17 07:13:55;;;;;;;;;;;;;;;13.98;60.77;101467.06;4962524;28;6815;-76
2023/04/17 07:16:21;;;;;;;;;;;;;;;13.96;60.25;101484.13;4944003;28;7201;-76
2023/04/17 07:18:49;;;;;;;;;;;;;;;13.93;60.57;101477.94;4927030;28;7164;-76
2023/04/17 07:21:15;;;;;;;;;;;;;;;13.90;59.74;101486.38;4960698;28;8117;-76
2023/04/17 07:23:41;;;;;;;;;;;;;;;13.86;60.79;101477.63;4943697;28;7423;-76
2023/04/17 07:26:07;;;;;;;;;;;;;;;13.86;60.02;101485.38;4941682;28;6768;-76
2023/04/17 07:28:33;;;;;;;;;;;;;;;13.83;60.16;101485.19;4947062;28;6858;-76
2023/04/17 07:30:59;;;;;;;;;;;;;;;13.83;59.90;101485.19;4955590;28;7241;-76
2023/04/17 07:33:25;;;;;;;;;;;;;;;13.84;60.02;101486.94;4958193;28;7204;-76
2023/04/17 07:35:52;;;;;;;;;;;;;;;13.86;60.13;101489.63;4957182;28;7458;-76
2023/04/17 07:38:18;;;;;;;;;;;;;;;13.86;60.08;101489.63;4959352;28;7178;-76
2023/04/17 07:40:43;;;;;;;;;;;;;;;13.86;59.99;101490.53;4948258;28;6776;-76
2023/04/17 07:43:09;;;;;;;;;;;;;;;13.88;60.38;101488.00;4945542;28;6772;-76
2023/04/17 07:45:35;;;;;;;;;;;;;;;13.92;60.73;101482.22;4943748;28;6776;-76
2023/04/17 07:48:03;;;;;;;;;;;;;;;13.98;60.08;101490.25;4944659;28;7063;-76
2023/04/17 07:50:29;;;;;;;;;;;;;;;14.02;60.75;101491.28;4943966;28;6992;-76
2023/04/17 07:52:55;;;;;;;;;;;;;;;14.04;59.58;101494.81;4941340;28;6989;-76
2023/04/17 07:55:21;;;;;;;;;;;;;;;14.06;60.07;101482.94;4959480;28;7063;-76
2023/04/17 07:57:50;;;;;;;;;;;;;;;14.10;60.73;101479.69;4957463;28;6939;-75
2023/04/17 08:00:16;;;;;;;;;;;;;;;14.16;60.36;101489.41;4944978;28;6800;-76
2023/04/17 08:02:42;;;;;;;;;;;;;;;14.22;59.96;101489.75;4961499;28;7075;-76
2023/04/17 08:05:09;;;;;;;;;;;;;;;14.25;60.14;101495.03;4939100;28;6983;-76
2023/04/17 08:07:35;;;;;;;;;;;;;;;14.27;59.46;101492.56;4945811;28;6990;-76
2023/04/17 08:10:02;;;;;;;;;;;;;;;14.27;59.36;101497.72;4943074;28;6999;-76
2023/04/17 08:12:28;;;;;;;;;;;;;;;14.27;60.03;101493.41;4940035;28;8227;-76
2023/04/17 08:14:54;;;;;;;;;;;;;;;14.28;59.69;101500.34;4941016;28;6804;-76
2023/04/17 08:17:21;;;;;;;;;;;;;;;14.29;59.38;101502.16;4944324;28;6842;-76
2023/04/17 08:19:52;;;;;;;;;;;;;;;14.28;59.52;101508.09;4936828;28;8210;-75
2023/04/17 08:22:20;;;;;;;;;;;;;;;14.27;59.74;101503.72;4937545;28;7324;-75
2023/04/17 08:24:48;;;;;;;;;;;;;;;14.28;59.17;101502.91;4955142;28;6812;-75
2023/04/17 08:27:14;;;;;;;;;;;;;;;14.31;59.84;101507.34;4939978;28;10823;-75
2023/04/17 08:29:40;;;;;;;;;;;;;;;14.35;59.55;101501.56;4926161;28;7016;-75
2023/04/17 08:32:06;;;;;;;;;;;;;;;14.41;59.90;101516.47;4954621;28;7610;-75
2023/04/17 08:34:32;;;;;;;;;;;;;;;14.44;58.75;101506.28;4938799;28;6768;-75
2023/04/17 08:36:57;;;;;;;;;;;;;;;14.48;59.96;101505.63;4940441;28;7194;-75
2023/04/17 08:39:23;;;;;;;;;;;;;;;14.55;59.69;101506.81;4945547;28;6851;-75
2023/04/17 08:42:06;;;;;;;;;;;;;;;14.60;59.50;101514.78;4938207;28;6768;-75
2023/04/17 08:44:31;;;;;;;;;;;;;;;14.65;59.35;101508.16;4934497;28;6800;-75
2023/04/17 08:46:57;;;;;;;;;;;;;;;14.71;59.31;101513.63;4936493;28;6926;-74
2023/04/17 08:49:34;;;;;;;;;;;;;;;14.77;58.86;101506.19;4940443;28;6821;-75
2023/04/17 08:52:06;;;;;;;;;;;;;;;14.81;58.91;101513.28;4960977;28;7542;-75
2023/04/17 08:54:34;;;;;;;;;;;;;;;14.83;58.92;101511.66;4943670;28;6984;-75
2023/04/17 08:57:06;;;;;;;;;;;;;;;14.82;58.35;101515.06;4945959;28;10057;-75
2023/04/17 08:59:32;;;;;;;;;;;;;;;14.80;58.62;101515.78;4961804;28;7449;-75
2023/04/17 09:02:05;;;;;;;;;;;;;;;14.80;57.73;101515.78;4958705;28;7186;-75
2023/04/17 09:04:41;;;;;;;;;;;;;;;14.78;58.04;101518.31;4943603;28;6777;-75
2023/04/17 09:07:10;;;;;;;;;;;;;;;14.73;58.11;101519.78;4937856;28;7313;-75
2023/04/17 09:09:53;;;;;;;;;;;;;;;14.69;57.85;101516.13;4940331;28;7432;-75
2023/04/17 09:12:21;;;;;;;;;;;;;;;14.66;58.07;101518.56;4922093;28;7422;-74
2023/04/17 09:14:47;;;;;;;;;;;;;;;14.67;58.37;101522.00;4960917;28;6784;-74
2023/04/17 09:17:19;;;;;;;;;;;;;;;14.68;58.05;101523.81;4961685;28;7633;-75
2023/04/17 09:20:06;;;;;;;;;;;;;;;14.65;58.24;101521.03;4953484;28;6796;-75
2023/04/17 09:22:32;;;;;;;;;;;;;;;14.65;58.32;101526.22;4939638;28;6812;-74
2023/04/17 09:24:59;;;;;;;;;;;;;;;14.67;58.18;101519.41;4936923;28;6935;-75
2023/04/17 09:27:27;;;;;;;;;;;;;;;14.72;58.49;101520.53;4926135;28;7238;-75
2023/04/17 09:30:02;;;;;;;;;;;;;;;14.80;58.47;101514.09;4959181;28;7051;-75
2023/04/17 09:32:31;;;;;;;;;;;;;;;14.88;58.25;101513.59;4957579;28;7470;-75
2023/04/17 09:35:00;;;;;;;;;;;;;;;14.94;58.32;101513.88;4939219;28;6793;-75
2023/04/17 09:37:49;;;;;;;;;;;;;;;14.97;58.01;101517.50;4941252;28;7138;-75
2023/04/17 09:40:20;;;;;;;;;;;;;;;15.00;57.52;101519.34;4941115;28;7187;-75
2023/04/17 09:43:01;;;;;;;;;;;;;;;15.08;57.99;101514.53;4953423;28;7218;-74
2023/04/17 09:45:34;;;;;;;;;;;;;;;15.17;58.20;101514.09;4954872;28;6815;-76
2023/04/17 09:48:01;;;;;;;;;;;;;;;15.28;58.16;101521.50;4928824;28;7075;-75
2023/04/17 09:50:27;;;;;;;;;;;;;;;15.39;57.83;101518.53;4938439;28;7535;-76
2023/04/17 09:52:54;;;;;;;;;;;;;;;15.48;57.61;101521.53;4939361;28;7992;-75
2023/04/17 09:55:23;;;;;;;;;;;;;;;15.54;57.18;101523.53;4956564;28;7110;-75
2023/04/17 09:57:52;;;;;;;;;;;;;;;15.57;57.12;101518.50;4959229;28;7759;-75
2023/04/17 10:00:20;;;;;;;;;;;;;;;15.58;56.77;101520.28;4958952;28;7241;-75
2023/04/17 10:02:50;;;;;;;;;;;;;;;15.58;56.32;101527.13;4943937;28;6804;-75
2023/04/17 10:05:18;;;;;;;;;;;;;;;15.57;56.54;101530.53;4942383;28;7053;-76
2023/04/17 10:07:44;;;;;;;;;;;;;;;15.54;56.69;101515.75;4942628;28;7107;-75
2023/04/17 10:10:21;;;;;;;;;;;;;;;15.53;55.92;101516.59;4942635;28;6804;-76
2023/04/17 10:12:49;;;;;;;;;;;;;;;15.52;56.31;101520.00;4958443;28;6838;-76
2023/04/17 10:15:15;;;;;;;;;;;;;;;15.52;56.37;101520.88;4940277;28;6800;-76
2023/04/17 10:17:41;;;;;;;;;;;;;;;15.49;55.85;101512.97;4940936;28;6789;-73
2023/04/17 10:20:19;;;;;;;;;;;;;;;15.46;56.52;101519.72;4960550;28;6963;-73
2023/04/17 10:22:53;;;;;;;;;;;;;;;15.45;56.34;101518.81;4946284;28;7236;-73
2023/04/17 10:25:27;;;;;;;;;;;;;;;15.46;56.17;101514.56;4943524;28;6856;-73
2023/04/17 10:27:59;;;;;;;;;;;;;;;15.52;56.76;101522.56;4944477;28;7032;-74
2023/04/17 10:30:52;;;;;;;;;;;;;;;15.63;56.96;101505.84;4943359;28;7083;-73
2023/04/17 10:33:21;;;;;;;;;;;;;;;15.75;56.73;101507.25;4962122;28;6848;-73
2023/04/17 10:35:48;;;;;;;;;;;;;;;15.92;56.97;101506.28;4957989;28;6831;-73
2023/04/17 10:38:15;;;;;;;;;;;;;;;16.22;57.41;101495.53;4944297;28;7227;-73
2023/04/17 10:40:43;;;;;;;;;;;;;;;16.57;56.67;101495.22;4947940;28;6812;-76
2023/04/17 10:43:10;;;;;;;;;;;;;;;16.88;56.16;101491.25;4947390;28;7045;-73
2023/04/17 10:46:12;;;;;;;;;;;;;;;17.11;54.96;101485.25;4950950;28;7102;-74
2023/04/17 10:48:51;;;;;;;;;;;;;;;17.12;54.01;101494.78;4951792;28;6959;-74
2023/04/17 10:51:22;;;;;;;;;;;;;;;17.00;53.84;101483.13;4941880;28;7214;-73
2023/04/17 10:53:54;;;;;;;;;;;;;;;16.93;53.71;101488.84;4947305;28;6903;-73
2023/04/17 10:56:41;;;;;;;;;;;;;;;16.91;53.77;101487.91;4941592;28;6986;-73
2023/04/17 10:59:15;;;;;;;;;;;;;;;17.03;54.70;101484.94;4947403;28;7028;-74
2023/04/17 11:01:47;;;;;;;;;;;;;;;17.42;54.13;101482.09;4921319;28;7007;-75
2023/04/17 11:04:22;;;;;;;;;;;;;;;17.86;53.60;101478.47;4944144;28;6780;-74
2023/04/17 11:06:48;;;;;;;;;;;;;;;18.46;52.67;101469.25;4947091;28;7010;-75
2023/04/17 11:09:14;;;;;;;;;;;;;;;19.06;51.65;101470.28;4947558;28;6840;-73
2023/04/17 11:11:42;;;;;;;;;;;;;;;19.70;50.15;101469.47;4959395;28;6875;-75
2023/04/17 11:14:21;;;;;;;;;;;;;;;19.94;48.83;101458.00;4959576;28;6820;-73
2023/04/17 11:16:50;;;;;;;;;;;;;;;20.28;48.88;101469.28;4944328;28;6808;-73
2023/04/17 11:19:25;;;;;;;;;;;;;;;20.54;47.59;101458.59;4935324;28;6812;-73
2023/04/17 11:22:00;;;;;;;;;;;;;;;20.39;46.89;101465.22;4942763;28;7779;-74
2023/04/17 11:24:29;;;;;;;;;;;;;;;20.37;46.73;101458.22;4941036;28;6871;-75
2023/04/17 11:26:59;;;;;;;;;;;;;;;20.56;46.88;101459.53;4938262;28;7091;-73
2023/04/17 11:29:26;;;;;;;;;;;;;;;21.12;46.17;101458.19;4961855;28;7281;-73
2023/04/17 11:31:55;;;;;;;;;;;;;;;21.56;44.36;101456.47;4942892;28;7104;-73
2023/04/17 11:34:21;;;;;;;;;;;;;;;21.40;42.88;101457.91;4956475;28;6955;-73
2023/04/17 11:36:55;;;;;;;;;;;;;;;21.07;43.10;101457.22;4940817;28;7126;-73
2023/04/17 11:39:24;;;;;;;;;;;;;;;20.70;43.42;101461.59;4929253;28;7393;-73
2023/04/17 11:41:51;;;;;;;;;;;;;;;20.75;43.08;101458.22;4943918;28;8213;-74
2023/04/17 11:44:19;;;;;;;;;;;;;;;20.64;42.52;101460.59;4956331;28;6937;-76
2023/04/17 11:46:53;;;;;;;;;;;;;;;20.38;42.60;101453.06;4945721;28;6812;-73
2023/04/17 11:49:29;;;;;;;;;;;;;;;20.37;43.35;101459.06;4943305;28;6860;-75
2023/04/17 11:52:00;;;;;;;;;;;;;;;20.98;43.19;101462.25;4944447;28;6843;-73
2023/04/17 11:54:32;;;;;;;;;;;;;;;21.68;41.92;101456.72;4938782;28;6800;-74
2023/04/17 11:57:11;;;;;;;;;;;;;;;22.26;40.34;101453.38;4955582;28;7883;-71
2023/04/17 11:59:40;;;;;;;;;;;;;;;22.21;39.74;101447.19;4943758;28;6970;-73
2023/04/17 12:02:08;;;;;;;;;;;;;;;22.35;39.93;101447.41;4958944;28;6951;-72
2023/04/17 12:04:36;;;;;;;;;;;;;;;22.72;39.35;101445.38;4946816;28;6796;-75
2023/04/17 12:07:03;;;;;;;;;;;;;;;22.79;39.25;101438.53;4941220;28;7070;-74
2023/04/17 12:09:32;;;;;;;;;;;;;;;22.91;37.85;101437.81;4964085;28;6804;-72
2023/04/17 12:12:05;;;;;;;;;;;;;;;22.55;37.65;101449.47;4923937;28;7013;-75
2023/04/17 12:14:31;;;;;;;;;;;;;;;22.08;37.46;101446.13;4952276;28;6890;-72
2023/04/17 12:16:57;;;;;;;;;;;;;;;21.65;37.55;101446.22;4945525;28;6919;-73
2023/04/17 12:19:25;;;;;;;;;;;;;;;21.34;37.93;101454.31;4941863;28;7438;-74
2023/04/17 12:21:51;;;;;;;;;;;;;;;21.44;37.94;101450.16;4941045;28;7481;-74
2023/04/17 12:24:19;;;;;;;;;;;;;;;21.39;37.73;101453.50;4941758;28;7156;-74
2023/04/17 12:26:46;;;;;;;;;;;;;;;21.49;37.50;101450.25;4954887;28;6820;-74
2023/04/17 12:29:13;;;;;;;;;;;;;;;21.74;37.36;101430.75;4940687;28;6784;-75
2023/04/17 12:31:39;;;;;;;;;;;;;;;22.00;36.72;101439.91;4941430;28;7060;-75
2023/04/17 12:34:05;;;;;;;;;;;;;;;21.99;36.61;101441.59;4962699;28;7709;-74
2023/04/17 12:36:31;;;;;;;;;;;;;;;22.21;36.71;101431.53;4941496;28;6810;-74
2023/04/17 12:38:56;;;;;;;;;;;;;;;22.64;36.29;101436.56;4946246;28;7197;-74
2023/04/17 12:41:25;;;;;;;;;;;;;;;22.67;35.01;101430.50;4958700;28;7205;-74
2023/04/17 12:43:51;;;;;;;;;;;;;;;22.57;35.07;101435.59;4945675;28;7959;-74
2023/04/17 12:46:17;;;;;;;;;;;;;;;22.71;34.46;101440.16;4943630;28;6796;-75
2023/04/17 12:48:42;;;;;;;;;;;;;;;22.99;34.09;101425.72;4941562;28;8729;-75